createdAt,value
2023-05-22T03:13:38.625Z,100.00
2023-05-22T03:16:41.691Z,100.00
2023-05-22T03:19:44.015Z,100.00
2023-05-22T03:22:46.472Z,100.00
2023-05-22T03:25:48.755Z,100.00
2023-05-22T03:28:51.330Z,100.00
2023-05-22T03:31:54.670Z,100.00
2023-05-22T03:34:58.446Z,100.00
2023-05-22T03:38:00.884Z,100.00
2023-05-22T03:41:03.441Z,100.00
2023-05-22T03:44:06.074Z,100.00
2023-05-22T03:47:08.899Z,100.00
2023-05-22T03:50:11.504Z,100.00
2023-05-22T03:53:14.137Z,100.00
2023-05-22T03:56:16.817Z,100.00
2023-05-22T03:59:19.352Z,100.00
2023-05-22T04:02:22.055Z,100.00
2023-05-22T04:05:26.728Z,100.00
2023-05-22T04:08:29.068Z,99.73
2023-05-22T04:11:32.273Z,98.09
2023-05-22T04:14:34.986Z,96.47
2023-05-22T04:17:41.048Z,94.95
2023-05-22T04:20:43.316Z,92.30
2023-05-22T04:23:46.152Z,91.44
2023-05-22T04:26:49.204Z,88.95
2023-05-22T04:29:51.795Z,87.54
2023-05-22T04:32:54.050Z,86.11
2023-05-22T04:35:57.671Z,85.86
2023-05-22T04:39:04.652Z,87.11
2023-05-22T04:42:08.961Z,86.67
2023-05-22T04:45:11.455Z,84.16
2023-05-22T04:48:15.372Z,82.63
2023-05-22T04:51:17.575Z,82.27
2023-05-22T04:54:20.559Z,82.17
2023-05-22T04:57:25.587Z,81.61
2023-05-22T05:00:28.985Z,79.21
2023-05-22T05:03:32.342Z,78.82
2023-05-22T05:06:35.880Z,78.47
2023-05-22T05:09:38.233Z,76.92
2023-05-22T05:12:41.352Z,74.29
2023-05-22T05:15:43.625Z,74.87
2023-05-22T05:18:46.133Z,73.07
2023-05-22T05:21:49.713Z,70.28
2023-05-22T05:24:52.641Z,65.42
2023-05-22T05:27:54.851Z,68.77
2023-05-22T05:30:58.613Z,67.10
2023-05-22T05:34:01.141Z,64.38
2023-05-22T05:37:05.446Z,61.12
2023-05-22T05:40:08.602Z,58.59
2023-05-22T05:43:11.295Z,58.16
2023-05-22T05:46:14.421Z,53.30
2023-05-22T05:49:17.028Z,56.56
2023-05-22T05:52:19.774Z,56.46
2023-05-22T05:55:23.593Z,53.47
2023-05-22T05:58:26.003Z,51.70
2023-05-22T06:01:32.962Z,52.21
2023-05-22T06:04:36.735Z,53.06
2023-05-22T06:07:40.086Z,53.36
2023-05-22T06:10:55.153Z,54.91
2023-05-22T06:14:08.802Z,56.38
2023-05-22T06:17:12.447Z,55.02
2023-05-22T06:20:15.594Z,50.45
2023-05-22T06:23:18.042Z,48.57
2023-05-22T06:26:22.342Z,50.41
2023-05-22T06:29:26.288Z,51.78
2023-05-22T06:32:32.157Z,52.18
2023-05-22T06:35:34.886Z,50.63
2023-05-22T06:38:38.058Z,52.78
2023-05-22T06:41:41.383Z,52.70
2023-05-22T06:44:44.653Z,47.84
2023-05-22T06:47:47.235Z,48.44
2023-05-22T06:50:50.044Z,45.91
2023-05-22T06:53:52.854Z,48.07
2023-05-22T06:56:56.216Z,42.30
2023-05-22T07:00:01.099Z,41.07
2023-05-22T07:03:06.773Z,41.74
2023-05-22T07:06:09.622Z,47.43
2023-05-22T07:09:12.684Z,42.30
2023-05-22T07:12:15.408Z,45.47
2023-05-22T07:15:17.794Z,42.10
2023-05-22T07:18:21.172Z,42.66
2023-05-22T07:21:26.418Z,38.59
2023-05-22T07:24:30.833Z,39.22
2023-05-22T07:27:34.162Z,39.99
2023-05-22T07:30:38.602Z,42.49
2023-05-22T07:33:41.551Z,41.62
2023-05-22T07:36:45.427Z,40.29
2023-05-22T07:39:47.653Z,43.39
2023-05-22T07:42:50.652Z,44.78
2023-05-22T07:45:54.139Z,45.77
2023-05-22T07:48:58.419Z,44.66
2023-05-22T07:52:00.861Z,45.84
2023-05-22T07:55:04.750Z,45.20
2023-05-22T07:58:08.481Z,42.48
2023-05-22T08:01:11.649Z,47.86
2023-05-22T08:04:14.427Z,43.49
2023-05-22T08:07:17.277Z,49.64
2023-05-22T08:10:20.049Z,45.34
2023-05-22T08:13:22.447Z,43.45
2023-05-22T08:16:25.122Z,42.36
2023-05-22T08:19:27.458Z,41.44
2023-05-22T08:22:31.162Z,41.73
2023-05-22T08:25:33.558Z,40.40
2023-05-22T08:28:36.819Z,41.96
2023-05-22T08:31:39.274Z,38.26
2023-05-22T08:34:42.137Z,38.49
2023-05-22T08:37:44.567Z,37.89
2023-05-22T08:40:49.745Z,39.28
2023-05-22T08:43:52.021Z,38.56
2023-05-22T08:46:56.632Z,36.28
2023-05-22T08:50:00.173Z,39.16
2023-05-22T08:53:03.573Z,36.89
2023-05-22T08:56:07.026Z,35.15
2023-05-22T08:59:10.853Z,36.18
2023-05-22T09:02:13.591Z,35.96
2023-05-22T09:05:19.579Z,36.66
2023-05-22T09:08:21.873Z,35.99
2023-05-22T09:11:24.793Z,34.47
2023-05-22T09:14:27.296Z,32.57
2023-05-22T09:17:29.810Z,34.16
2023-05-22T09:20:39.212Z,36.50
2023-05-22T09:23:42.018Z,32.86
2023-05-22T09:26:44.283Z,31.12
2023-05-22T09:29:53.516Z,30.23
2023-05-22T09:32:57.114Z,30.66
2023-05-22T09:36:00.169Z,26.87
2023-05-22T09:39:04.369Z,24.16
2023-05-22T09:42:08.946Z,26.41
2023-05-22T09:45:11.548Z,29.74
2023-05-22T09:48:17.583Z,30.97
2023-05-22T09:51:23.789Z,32.00
2023-05-22T09:54:27.692Z,27.70
2023-05-22T09:57:33.723Z,27.30
2023-05-22T10:00:36.817Z,26.74
2023-05-22T10:03:40.914Z,25.81
2023-05-22T10:06:47.251Z,23.84
2023-05-22T10:09:56.964Z,20.95
2023-05-22T10:13:04.898Z,20.00
2023-05-22T10:16:08.177Z,17.03
2023-05-22T10:19:12.192Z,16.22
2023-05-22T10:22:20.711Z,21.25
2023-05-22T10:25:23.477Z,26.41
2023-05-22T10:28:30.907Z,27.85
2023-05-22T10:31:44.342Z,23.12
2023-05-22T10:34:56.356Z,17.98
2023-05-22T10:38:13.889Z,14.98
2023-05-22T10:41:17.128Z,15.23
2023-05-22T10:44:19.417Z,13.89
2023-05-22T10:47:21.939Z,13.68
2023-05-22T10:50:24.400Z,13.13
2023-05-22T10:53:31.308Z,13.05
2023-05-22T10:56:35.386Z,12.52
2023-05-22T10:59:38.127Z,13.30
2023-05-22T11:02:45.558Z,14.31
2023-05-22T11:05:53.829Z,14.11
2023-05-22T11:08:57.539Z,16.22
2023-05-22T11:12:13.488Z,15.12
2023-05-22T11:15:16.008Z,16.04
2023-05-22T11:18:18.561Z,16.66
2023-05-22T11:21:22.333Z,21.20
2023-05-22T11:24:24.881Z,25.49
2023-05-22T11:27:27.498Z,26.20
2023-05-22T11:30:32.800Z,27.45
2023-05-22T11:33:35.129Z,27.83
2023-05-22T11:36:38.509Z,28.36
2023-05-22T11:39:40.754Z,28.53
2023-05-22T11:42:43.654Z,30.07
2023-05-22T11:45:46.004Z,31.22
2023-05-22T11:48:48.567Z,30.89
2023-05-22T11:51:51.796Z,31.04
2023-05-22T11:54:54.398Z,31.95
2023-05-22T11:57:56.727Z,31.42
2023-05-22T12:01:02.084Z,31.48
2023-05-22T12:04:05.305Z,33.27
2023-05-22T12:07:08.859Z,30.09
2023-05-22T12:10:11.563Z,30.29
2023-05-22T12:13:13.818Z,31.44
2023-05-22T12:16:25.177Z,30.78
2023-05-22T12:19:27.949Z,30.17
2023-05-22T12:22:30.488Z,31.41
2023-05-22T12:25:39.249Z,30.69
2023-05-22T12:28:41.698Z,31.48
2023-05-22T12:31:46.470Z,31.08
2023-05-22T12:34:50.354Z,31.85
2023-05-22T12:37:52.667Z,31.29
2023-05-22T12:40:56.538Z,32.08
2023-05-22T12:43:58.877Z,32.47
2023-05-22T12:47:01.416Z,32.88
2023-05-22T12:50:03.815Z,32.69
2023-05-22T12:53:06.426Z,32.16
2023-05-22T12:56:08.622Z,32.63
2023-05-22T12:59:11.020Z,34.70
2023-05-22T13:02:13.471Z,34.82
2023-05-22T13:05:16.274Z,34.66
2023-05-22T13:08:18.605Z,35.71
2023-05-22T13:11:23.419Z,35.14
2023-05-22T13:14:25.683Z,35.93
2023-05-22T13:17:28.680Z,34.70
2023-05-22T13:20:30.896Z,35.25
2023-05-22T13:23:33.362Z,35.23
2023-05-22T13:26:35.522Z,35.74
2023-05-22T13:29:38.299Z,35.07
2023-05-22T13:32:40.796Z,34.66
2023-05-22T13:35:43.346Z,37.58
2023-05-22T13:38:45.518Z,33.68
2023-05-22T13:41:48.228Z,35.22
2023-05-22T13:44:50.461Z,34.60
2023-05-22T13:47:53.348Z,34.59
2023-05-22T13:50:55.669Z,35.11
2023-05-22T13:53:58.218Z,37.46
2023-05-22T13:57:02.463Z,38.43
2023-05-22T14:00:05.505Z,35.85
2023-05-22T14:03:11.439Z,37.29
2023-05-22T14:06:13.833Z,36.92
2023-05-22T14:09:16.680Z,38.11
2023-05-22T14:12:18.945Z,36.71
2023-05-22T14:15:21.726Z,39.71
2023-05-22T14:18:24.060Z,39.40
2023-05-22T14:21:27.178Z,35.04
2023-05-22T14:24:29.486Z,36.81
2023-05-22T14:27:31.987Z,42.04
2023-05-22T14:30:34.288Z,43.20
2023-05-22T14:33:37.049Z,40.91
2023-05-22T14:36:39.215Z,45.07
2023-05-22T14:39:41.650Z,46.02
2023-05-22T14:42:44.612Z,45.19
2023-05-22T14:45:47.057Z,43.11
2023-05-22T14:48:49.319Z,42.87
2023-05-22T14:51:52.888Z,46.45
2023-05-22T14:54:55.088Z,45.03
2023-05-22T14:57:57.632Z,47.98
2023-05-22T15:00:59.844Z,44.76
2023-05-22T15:04:02.338Z,48.88
2023-05-22T15:07:05.084Z,43.22
2023-05-22T15:10:08.286Z,49.47
2023-05-22T15:13:11.689Z,46.80
2023-05-22T15:16:14.175Z,53.19
2023-05-22T15:19:16.435Z,47.32
2023-05-22T15:22:20.155Z,47.91
